Portada
METAR-TAF:

METAR-TAF

Aeroports :

Tôlanaro, Madagascar

latitud: 25-02S, longitud: 046-57E, altitud: 8 m

Observació

L'informe es va fer fa 51 minuts, a les 12:00 UTC
Vent 12 kt del Oest
Temperatura 25°C
Humitat 57%
Pressió 1018 hPa
Visibilitat 10 km o més
sense núvols per sota de 1500 mi sense presència de cumulonimbus.

METAR: FMSD 301200Z 26012KT CAVOK 25/16 Q1018

Hora: 15:51 (12:51 UTC)

Pronòstic

L'informe es va fer fa 1 hora i 51 minuts, a les 11:00 UTC
Pronòstic vàlid del 30 a les 12 UTC al 31 a les 12 UTC
Vent 10 kt del Oest/Sud-Oest
Visibilitat 10 km o més
Escasses núvols a una alçada de 1600 ft
Núvols disperses a una alçada de 3300 ft
Evolucionant progressivament
l' 30 a les 17 UTC al 30 a les 20 UTC
Vent 5 kt del Oest/Nord-Oest
Evolucionant progressivament
l' 31 a les 08 UTC al 31 a les 11 UTC
Vent 10 kt del Sud/Sud-Oest

TAF: FMSD 301100Z 3012/3112 24010KT 9999 FEW016 SCT033 BECMG 3017/3020 30005KT BECMG 3108/3111 20010KT

Observacions i pronòstics meteorològics de més de 4000 aeroports (METAR i TAF).

Les estacions disponibles són els punts grocs i vermells al mapa.

Posi el ratolí al punt desitjat per veure el nom de l'estació.

Feu clic per veure les observacions i els pronòstics meteorològics.

Per canviar el mapa: feu clic els botons verds amb una creu de color negre per apropar; al botó verd amb un guió per allunyar la imatge; o en les fletxes verdes per a mapes adjacents.


METAR-TAF: